createdAt,value
2022-11-19T00:00:10.757Z,44.42
2022-11-19T00:03:14.034Z,44.40
2022-11-19T00:06:21.923Z,44.39
2022-11-19T00:09:24.374Z,44.02
2022-11-19T00:12:45.404Z,43.81
2022-11-19T00:15:47.670Z,43.98
2022-11-19T00:18:49.951Z,43.85
2022-11-19T00:21:52.256Z,44.08
2022-11-19T00:24:54.552Z,43.65
2022-11-19T00:27:58.007Z,43.58
2022-11-19T00:31:03.606Z,43.82
2022-11-19T00:34:05.881Z,44.00
2022-11-19T00:37:08.161Z,43.97
2022-11-19T00:40:12.109Z,43.77
2022-11-19T00:43:32.668Z,43.76
2022-11-19T00:46:34.918Z,43.52
2022-11-19T00:49:37.352Z,43.47
2022-11-19T00:52:39.617Z,43.68
2022-11-19T00:55:41.831Z,43.39
2022-11-19T00:58:45.073Z,43.54
2022-11-19T01:01:47.316Z,43.26
2022-11-19T01:04:49.570Z,43.15
2022-11-19T01:07:53.609Z,43.64
2022-11-19T01:10:56.002Z,43.47
2022-11-19T01:13:59.016Z,43.13
2022-11-19T01:17:01.338Z,43.25
2022-11-19T01:20:03.745Z,43.11
2022-11-19T01:23:06.071Z,43.06
2022-11-19T01:26:09.129Z,42.83
2022-11-19T01:29:11.389Z,43.24
2022-11-19T01:32:13.628Z,43.18
2022-11-19T01:35:16.062Z,43.24
2022-11-19T01:38:18.277Z,43.08
2022-11-19T01:41:26.597Z,42.91
2022-11-19T01:45:00.446Z,43.19
2022-11-19T01:48:26.771Z,43.12
2022-11-19T01:51:35.475Z,42.95
2022-11-19T01:54:47.121Z,43.34
2022-11-19T01:57:55.906Z,43.28
2022-11-19T02:00:58.205Z,43.12
2022-11-19T02:04:02.459Z,43.20
2022-11-19T02:07:04.970Z,43.02
2022-11-19T02:10:08.111Z,43.08
2022-11-19T02:13:31.409Z,42.79
2022-11-19T02:16:39.814Z,42.82
2022-11-19T02:19:58.091Z,43.17
2022-11-19T02:23:43.189Z,42.67
2022-11-19T02:27:02.172Z,43.07
2022-11-19T02:30:06.189Z,42.58
2022-11-19T02:33:23.704Z,42.75
2022-11-19T02:36:32.026Z,42.71
2022-11-19T02:39:34.245Z,43.11
2022-11-19T02:42:47.038Z,42.99
2022-11-19T02:45:56.280Z,42.61
2022-11-19T02:48:58.858Z,42.73
2022-11-19T02:52:01.734Z,42.69
2022-11-19T02:55:04.298Z,42.84
2022-11-19T02:58:31.666Z,42.66
2022-11-19T03:01:54.616Z,42.51
2022-11-19T03:04:57.196Z,42.67
2022-11-19T03:07:59.876Z,42.56
2022-11-19T03:11:15.516Z,42.91
2022-11-19T03:14:48.489Z,42.98
2022-11-19T03:18:16.804Z,42.71
2022-11-19T03:21:30.393Z,42.71
2022-11-19T03:24:50.869Z,42.95
2022-11-19T03:27:59.718Z,42.74
2022-11-19T03:31:04.041Z,42.78
2022-11-19T03:34:15.416Z,42.53
2022-11-19T03:37:22.205Z,42.80
2022-11-19T03:40:27.018Z,42.81
2022-11-19T03:43:33.928Z,43.09
2022-11-19T03:46:38.397Z,42.54
2022-11-19T03:49:44.213Z,42.39
2022-11-19T03:52:46.602Z,42.50
2022-11-19T03:55:57.925Z,42.57
2022-11-19T03:59:00.409Z,42.60
2022-11-19T04:02:07.119Z,42.60
2022-11-19T04:05:09.552Z,42.50
2022-11-19T04:08:11.839Z,42.25
2022-11-19T04:14:18.994Z,42.44
2022-11-19T04:17:21.343Z,42.37
2022-11-19T04:20:23.613Z,42.30
2022-11-19T04:23:25.836Z,42.54
2022-11-19T04:26:28.084Z,42.02
2022-11-19T04:29:30.350Z,42.24
2022-11-19T04:32:32.700Z,42.25
2022-11-19T04:35:34.946Z,42.09
2022-11-19T04:38:37.175Z,42.35
2022-11-19T04:41:40.636Z,41.89
2022-11-19T04:44:42.832Z,42.27
2022-11-19T04:47:45.142Z,41.78
2022-11-19T04:50:47.411Z,41.78
2022-11-19T04:53:49.832Z,41.91
2022-11-19T04:56:52.176Z,42.08
2022-11-19T04:59:54.393Z,41.94
2022-11-19T05:02:56.676Z,42.24
2022-11-19T05:05:59.197Z,42.28
2022-11-19T05:09:01.804Z,41.86
2022-11-19T05:12:04.427Z,41.78
2022-11-19T05:15:07.193Z,42.02
2022-11-19T05:18:09.456Z,41.62
2022-11-19T05:21:11.678Z,41.62
2022-11-19T05:24:13.877Z,41.53
2022-11-19T05:27:16.158Z,41.86
2022-11-19T05:30:18.597Z,41.57
2022-11-19T05:33:21.444Z,41.57
2022-11-19T05:36:23.677Z,41.52
2022-11-19T05:39:26.256Z,41.54
2022-11-19T05:42:28.557Z,41.47
2022-11-19T05:45:30.837Z,41.42
2022-11-19T05:48:33.222Z,41.82
2022-11-19T05:51:35.690Z,41.66
2022-11-19T05:54:37.919Z,41.62
2022-11-19T05:57:40.201Z,41.46
2022-11-19T06:00:42.489Z,41.52
2022-11-19T06:03:44.943Z,41.72
2022-11-19T06:06:47.203Z,41.14
2022-11-19T06:09:49.503Z,41.38
2022-11-19T06:12:51.753Z,41.58
2022-11-19T06:15:54.053Z,41.18
2022-11-19T06:18:56.446Z,41.50
2022-11-19T06:21:59.089Z,41.76
2022-11-19T06:25:01.379Z,41.17
2022-11-19T06:28:03.685Z,41.55
2022-11-19T06:31:06.092Z,41.13
2022-11-19T06:34:08.506Z,41.14
2022-11-19T06:37:10.724Z,41.46
2022-11-19T06:40:13.824Z,41.20
2022-11-19T06:43:16.091Z,41.24
2022-11-19T06:46:18.381Z,41.30
2022-11-19T06:49:20.685Z,41.43
2022-11-19T06:52:23.313Z,41.15
2022-11-19T06:55:25.680Z,41.40
2022-11-19T06:58:29.273Z,41.00
2022-11-19T07:01:31.534Z,41.12
2022-11-19T07:04:33.864Z,41.24
2022-11-19T07:07:36.212Z,41.14
2022-11-19T07:10:38.553Z,41.22
2022-11-19T07:13:59.849Z,41.24
2022-11-19T07:17:02.950Z,41.00
2022-11-19T07:20:06.208Z,40.90
2022-11-19T07:23:11.733Z,40.89
2022-11-19T07:26:14.431Z,40.98
2022-11-19T07:29:17.039Z,41.01
2022-11-19T07:32:19.348Z,40.88
2022-11-19T07:35:21.761Z,40.64
2022-11-19T07:38:24.074Z,41.19
2022-11-19T07:41:44.925Z,40.71
2022-11-19T07:44:50.922Z,40.67
2022-11-19T07:47:56.790Z,40.66
2022-11-19T07:50:59.106Z,40.61
2022-11-19T07:54:01.687Z,40.96
2022-11-19T07:57:04.043Z,40.38
2022-11-19T08:00:07.300Z,40.45
2022-11-19T08:03:15.426Z,40.92
2022-11-19T08:06:19.047Z,40.43
2022-11-19T08:09:21.741Z,40.73
2022-11-19T08:12:24.495Z,40.68
2022-11-19T08:15:26.740Z,40.46
2022-11-19T08:18:31.330Z,40.66
2022-11-19T08:21:34.724Z,40.40
2022-11-19T08:24:36.999Z,40.48
2022-11-19T08:27:39.281Z,40.58
2022-11-19T08:30:42.032Z,40.48
2022-11-19T08:33:44.279Z,40.37
2022-11-19T08:36:46.657Z,40.23
2022-11-19T08:39:48.923Z,40.14
2022-11-19T08:43:00.608Z,40.47
2022-11-19T08:46:02.835Z,40.19
2022-11-19T08:49:05.913Z,40.29
2022-11-19T08:52:08.205Z,40.39
2022-11-19T08:55:10.649Z,40.27
2022-11-19T08:58:13.040Z,40.07
2022-11-19T09:01:16.890Z,39.77
2022-11-19T09:04:19.622Z,40.69
2022-11-19T09:07:22.135Z,39.89
2022-11-19T09:10:24.578Z,40.29
2022-11-19T09:13:26.805Z,40.36
2022-11-19T09:16:29.139Z,40.23
2022-11-19T09:19:31.435Z,39.97
2022-11-19T09:22:33.951Z,40.53
2022-11-19T09:25:36.261Z,40.01
2022-11-19T09:28:38.943Z,40.22
2022-11-19T09:31:41.208Z,40.20
2022-11-19T09:34:43.947Z,40.38
2022-11-19T09:37:46.219Z,40.09
2022-11-19T09:40:52.837Z,40.15
2022-11-19T09:44:13.887Z,39.98
2022-11-19T09:47:27.130Z,40.29
2022-11-19T09:50:50.372Z,40.15
2022-11-19T09:54:17.613Z,40.20
2022-11-19T09:57:46.356Z,40.13
2022-11-19T10:00:49.291Z,39.99
2022-11-19T10:03:54.204Z,40.05
2022-11-19T10:07:44.239Z,39.79
2022-11-19T10:11:12.064Z,39.97
2022-11-19T10:14:20.267Z,39.88
2022-11-19T10:17:48.770Z,40.19
2022-11-19T10:21:09.469Z,39.79
2022-11-19T10:24:35.132Z,39.86
2022-11-19T10:27:43.466Z,39.94
2022-11-19T10:30:51.043Z,39.65
2022-11-19T10:34:16.616Z,39.91
2022-11-19T10:37:22.525Z,39.86
2022-11-19T10:40:31.902Z,39.89
2022-11-19T10:43:46.313Z,39.88
2022-11-19T10:46:49.789Z,39.58
2022-11-19T10:49:54.241Z,39.84
2022-11-19T10:53:29.322Z,40.11
2022-11-19T10:56:42.283Z,39.69
2022-11-19T10:59:44.923Z,39.74
2022-11-19T11:02:52.723Z,39.64
2022-11-19T11:06:09.901Z,39.80
2022-11-19T11:09:14.877Z,39.94
2022-11-19T11:12:41.772Z,39.74
2022-11-19T11:15:54.327Z,39.85
2022-11-19T11:18:58.340Z,39.54
2022-11-19T11:22:00.665Z,39.83
2022-11-19T11:25:07.205Z,39.66
2022-11-19T11:28:16.233Z,39.91
2022-11-19T11:31:32.760Z,39.56
2022-11-19T11:34:43.827Z,40.13
2022-11-19T11:37:47.142Z,39.78
2022-11-19T11:44:51.092Z,39.81
2022-11-19T11:47:53.467Z,39.66
2022-11-19T11:50:55.903Z,39.39
2022-11-19T11:54:24.545Z,39.96
2022-11-19T11:57:26.767Z,39.94
2022-11-19T12:00:45.474Z,39.81
2022-11-19T12:03:56.599Z,39.66
2022-11-19T12:07:01.979Z,39.63
2022-11-19T12:10:22.623Z,39.71
2022-11-19T12:13:40.072Z,39.80
2022-11-19T12:17:04.202Z,39.68
2022-11-19T12:20:23.341Z,39.61
2022-11-19T12:23:44.327Z,39.18
2022-11-19T12:27:19.104Z,39.26
2022-11-19T12:30:24.552Z,39.41
2022-11-19T12:33:42.011Z,39.40
2022-11-19T12:37:13.908Z,39.76
2022-11-19T12:40:34.033Z,39.24
2022-11-19T12:43:47.536Z,39.42
2022-11-19T12:47:04.830Z,39.66
2022-11-19T12:50:14.521Z,39.48
2022-11-19T12:53:44.058Z,39.58
2022-11-19T12:57:15.345Z,39.20
2022-11-19T13:00:22.855Z,39.40
2022-11-19T13:03:47.621Z,39.13
2022-11-19T13:07:15.803Z,39.47
2022-11-19T13:10:29.827Z,39.49
2022-11-19T13:13:36.064Z,39.49
2022-11-19T13:16:40.324Z,39.53
2022-11-19T13:19:46.489Z,39.47
2022-11-19T13:22:52.040Z,39.54
2022-11-19T13:26:05.953Z,39.49
2022-11-19T13:29:20.811Z,39.41
2022-11-19T13:32:48.159Z,39.44
2022-11-19T13:36:03.481Z,39.76
2022-11-19T13:39:26.359Z,39.58
2022-11-19T13:43:04.073Z,39.28
2022-11-19T13:46:11.548Z,39.29
2022-11-19T13:49:34.082Z,39.27
2022-11-19T13:52:52.882Z,39.25
2022-11-19T13:55:57.255Z,39.39
2022-11-19T13:58:59.549Z,39.35
2022-11-19T14:02:25.121Z,39.02
2022-11-19T14:05:39.424Z,39.50
2022-11-19T14:09:04.839Z,39.26
2022-11-19T14:12:22.508Z,39.08
2022-11-19T14:16:04.559Z,39.15
2022-11-19T14:19:32.832Z,39.42
2022-11-19T14:23:13.068Z,39.32
2022-11-19T14:26:40.835Z,39.13
2022-11-19T14:29:46.108Z,39.40
2022-11-19T14:32:52.496Z,39.13
2022-11-19T14:35:54.784Z,39.03
2022-11-19T14:39:02.867Z,39.32
2022-11-19T14:42:17.485Z,39.56
2022-11-19T14:45:20.660Z,39.05
2022-11-19T14:48:23.104Z,39.33
2022-11-19T14:51:30.350Z,39.32
2022-11-19T14:54:43.841Z,39.13
2022-11-19T14:57:56.394Z,39.35
2022-11-19T15:01:15.463Z,39.43
2022-11-19T15:04:24.030Z,39.36
2022-11-19T15:07:33.863Z,39.36
2022-11-19T15:10:46.450Z,39.48
2022-11-19T15:14:09.616Z,39.55
2022-11-19T15:17:12.003Z,39.47
2022-11-19T15:20:41.015Z,39.33
2022-11-19T15:23:53.943Z,39.13
2022-11-19T15:27:20.185Z,39.17
2022-11-19T15:30:54.233Z,39.11
2022-11-19T15:34:05.590Z,39.16
2022-11-19T15:37:15.498Z,39.51
2022-11-19T15:40:29.583Z,39.56
2022-11-19T15:43:40.320Z,39.36
2022-11-19T15:46:50.552Z,39.39
2022-11-19T15:49:53.378Z,39.15
2022-11-19T15:53:14.445Z,39.25
2022-11-19T15:56:17.957Z,39.03
2022-11-19T15:59:21.242Z,39.11
2022-11-19T16:02:41.641Z,39.30
2022-11-19T16:06:07.689Z,39.07
2022-11-19T16:09:18.960Z,39.36
2022-11-19T16:12:42.531Z,39.33
2022-11-19T16:16:11.497Z,39.62
2022-11-19T16:19:15.386Z,39.36
2022-11-19T16:22:18.057Z,39.37
2022-11-19T16:25:26.152Z,39.54
2022-11-19T16:28:32.809Z,39.53
2022-11-19T16:31:35.124Z,39.20
2022-11-19T16:34:37.692Z,39.27
2022-11-19T16:37:40.175Z,39.14
2022-11-19T16:41:03.211Z,39.28
2022-11-19T16:44:12.287Z,39.55
2022-11-19T16:47:19.453Z,39.44
2022-11-19T16:50:36.373Z,39.69
2022-11-19T16:53:46.698Z,39.28
2022-11-19T16:56:49.096Z,39.56
2022-11-19T16:59:54.815Z,39.30
2022-11-19T17:02:58.054Z,39.54
2022-11-19T17:06:01.800Z,39.58
2022-11-19T17:09:05.943Z,39.74
2022-11-19T17:12:29.672Z,39.71
2022-11-19T17:15:46.472Z,39.40
2022-11-19T17:18:50.341Z,39.59
2022-11-19T17:22:18.284Z,39.53
2022-11-19T17:25:20.618Z,39.47
2022-11-19T17:28:45.430Z,39.37
2022-11-19T17:31:49.127Z,39.50
2022-11-19T17:34:55.436Z,39.72
2022-11-19T17:38:30.023Z,39.62
2022-11-19T17:41:51.570Z,39.84
2022-11-19T17:44:53.945Z,39.59
2022-11-19T17:47:56.252Z,39.61
2022-11-19T17:50:58.589Z,39.73
2022-11-19T17:54:00.992Z,39.64
2022-11-19T17:57:03.271Z,39.78
2022-11-19T18:00:06.118Z,39.64
2022-11-19T18:03:12.388Z,39.54
2022-11-19T18:06:16.772Z,39.83
2022-11-19T18:09:19.507Z,39.84
2022-11-19T18:12:22.097Z,39.84
2022-11-19T18:15:24.378Z,40.04
2022-11-19T18:18:26.628Z,39.56
2022-11-19T18:21:28.918Z,39.63
2022-11-19T18:24:31.331Z,39.88
2022-11-19T18:27:33.626Z,39.69
2022-11-19T18:30:36.529Z,39.62
2022-11-19T18:33:39.996Z,39.75
2022-11-19T18:36:42.284Z,39.77
2022-11-19T18:39:44.598Z,39.84
2022-11-19T18:43:05.479Z,39.69
2022-11-19T18:46:07.788Z,39.38
2022-11-19T18:49:10.071Z,39.34
2022-11-19T18:52:15.199Z,39.65
2022-11-19T18:55:17.649Z,39.52
2022-11-19T18:58:19.908Z,39.30
2022-11-19T19:01:24.040Z,39.24
2022-11-19T19:04:26.487Z,39.08
2022-11-19T19:07:28.796Z,39.30
2022-11-19T19:10:31.258Z,38.92
2022-11-19T19:13:33.584Z,39.12
2022-11-19T19:16:36.193Z,39.12
2022-11-19T19:19:39.308Z,39.04
2022-11-19T19:22:41.583Z,38.87
2022-11-19T19:25:43.843Z,38.87
2022-11-19T19:28:51.844Z,38.95
2022-11-19T19:31:54.217Z,38.92
2022-11-19T19:34:56.575Z,39.04
2022-11-19T19:37:58.898Z,38.91
2022-11-19T19:41:11.634Z,38.72
2022-11-19T19:44:13.956Z,38.60
2022-11-19T19:47:16.260Z,38.53
2022-11-19T19:50:18.572Z,38.84
2022-11-19T19:53:20.844Z,38.72
2022-11-19T19:56:28.838Z,38.80
2022-11-19T19:59:31.511Z,38.71
2022-11-19T20:02:33.755Z,38.87
2022-11-19T20:05:36.058Z,39.06
2022-11-19T20:08:39.237Z,38.81
2022-11-19T20:11:41.567Z,38.81
2022-11-19T20:14:43.791Z,38.71
2022-11-19T20:17:46.059Z,38.55
2022-11-19T20:20:48.329Z,38.91
2022-11-19T20:23:51.580Z,38.59
2022-11-19T20:26:53.898Z,38.96
2022-11-19T20:29:56.193Z,38.57
2022-11-19T20:32:58.446Z,38.58
2022-11-19T20:36:01.123Z,38.84
2022-11-19T20:39:05.072Z,38.83
2022-11-19T20:42:26.983Z,38.86
2022-11-19T20:45:29.445Z,38.82
2022-11-19T20:48:31.730Z,38.49
2022-11-19T20:51:37.425Z,38.85
2022-11-19T20:54:39.900Z,38.71
2022-11-19T20:57:42.163Z,38.80
2022-11-19T21:00:44.544Z,38.65
2022-11-19T21:03:46.797Z,38.85
2022-11-19T21:06:54.057Z,38.63
2022-11-19T21:09:56.631Z,38.76
2022-11-19T21:13:01.444Z,38.51
2022-11-19T21:16:18.596Z,38.55
2022-11-19T21:19:21.242Z,38.65
2022-11-19T21:22:23.752Z,38.86
2022-11-19T21:25:26.095Z,38.55
2022-11-19T21:28:29.174Z,38.46
2022-11-19T21:31:41.784Z,38.51
2022-11-19T21:34:44.306Z,38.34
2022-11-19T21:37:46.662Z,38.40
2022-11-19T21:40:55.658Z,38.72
2022-11-19T21:43:57.943Z,38.80
2022-11-19T21:47:00.209Z,38.85
2022-11-19T21:50:02.492Z,38.49
2022-11-19T21:53:04.970Z,38.73
2022-11-19T21:56:07.702Z,38.84
2022-11-19T21:59:09.989Z,38.71
2022-11-19T22:02:12.806Z,38.74
2022-11-19T22:05:15.071Z,38.70
2022-11-19T22:08:17.348Z,38.73
2022-11-19T22:11:28.640Z,38.42
2022-11-19T22:14:30.940Z,38.38
2022-11-19T22:17:33.350Z,38.75
2022-11-19T22:20:35.621Z,38.41
2022-11-19T22:23:37.926Z,38.48
2022-11-19T22:26:40.227Z,38.43
2022-11-19T22:29:42.961Z,38.47
2022-11-19T22:32:45.272Z,38.34
2022-11-19T22:35:47.758Z,38.25
2022-11-19T22:38:51.033Z,38.47
2022-11-19T22:41:54.209Z,38.64
2022-11-19T22:44:56.498Z,38.26
2022-11-19T22:47:58.723Z,38.57
2022-11-19T22:51:07.287Z,38.55
2022-11-19T22:54:11.969Z,38.30
2022-11-19T22:57:14.249Z,38.23
2022-11-19T23:00:37.933Z,38.59
2022-11-19T23:03:40.251Z,38.39
2022-11-19T23:06:42.551Z,38.42
2022-11-19T23:09:44.831Z,38.26
2022-11-19T23:13:05.864Z,38.36
2022-11-19T23:16:11.767Z,38.21
2022-11-19T23:19:14.662Z,38.63
2022-11-19T23:22:16.997Z,38.61
2022-11-19T23:25:20.276Z,38.37
2022-11-19T23:28:22.925Z,38.44
2022-11-19T23:31:34.295Z,38.45
2022-11-19T23:34:36.857Z,38.11
2022-11-19T23:37:39.424Z,38.19
2022-11-19T23:40:41.764Z,38.39
2022-11-19T23:43:44.594Z,38.19
2022-11-19T23:46:46.841Z,38.26
2022-11-19T23:49:49.067Z,38.11
2022-11-19T23:52:51.339Z,38.11
2022-11-19T23:55:53.592Z,38.38
2022-11-19T23:58:55.968Z,38.10
